Time;durP1;ratioP1;P1;durP2;ratioP2;P2;SDS_P1;SDS_P2;PMS_P1;PMS_P2;Temp;Humidity;BMP_temperature;BMP_pressure;BME280_temperature;BME280_humidity;BME280_pressure;Samples;Min_cycle;Max_cycle;Signal;HPM_P1;HPM_P2
2023/07/17 00:01:44;;;;;;;8.43;4.72;;;17.00;99.90;;;-144.05;64.10;56870.06;5058585;28;20028;-86
2023/07/17 00:04:10;;;;;;;9.23;4.63;;;16.90;99.90;;;-144.05;64.84;56870.06;5057925;28;20395;-83
2023/07/17 00:06:37;;;;;;;9.43;5.05;;;16.90;99.90;;;-144.05;64.92;56874.31;5057650;28;20396;-87
2023/07/17 00:09:04;;;;;;;10.77;4.57;;;16.80;99.90;;;-144.05;65.09;56861.56;5075498;28;20024;-84
2023/07/17 00:11:30;;;;;;;8.15;4.57;;;16.80;99.90;;;-144.05;65.92;56878.56;5057947;28;20126;-85
2023/07/17 00:13:55;;;;;;;9.25;4.72;;;16.70;99.90;;;-144.05;66.39;56878.56;5058420;28;20133;-87
2023/07/17 00:16:21;;;;;;;8.57;4.95;;;16.60;99.90;;;-144.05;67.19;56848.84;5060507;28;20036;-87
2023/07/17 00:18:47;;;;;;;16.13;5.75;;;16.50;99.90;;;-144.05;68.17;56884.94;5077205;28;20384;-86
2023/07/17 00:21:13;;;;;;;10.48;4.60;;;16.40;99.90;;;-144.05;68.67;56882.81;5060613;28;20058;-87
2023/07/17 00:23:39;;;;;;;9.68;5.03;;;16.30;99.90;;;-144.05;69.27;56863.69;5060262;28;20029;-87
2023/07/17 00:26:05;;;;;;;9.75;5.35;;;16.30;99.90;;;-144.05;69.51;56863.69;5056830;28;20025;-85
2023/07/17 00:28:31;;;;;;;7.38;4.90;;;16.20;99.90;;;-144.05;69.65;56889.19;5057994;28;20025;-89
2023/07/17 00:30:57;;;;;;;8.95;4.40;;;16.20;99.90;;;-144.05;69.19;56848.84;5042639;28;20476;-88
2023/07/17 00:33:23;;;;;;;7.25;3.97;;;16.20;99.90;;;-144.05;68.98;56855.22;5042630;28;20055;-86
2023/07/17 00:35:49;;;;;;;6.75;3.88;;;16.20;99.90;;;-144.05;68.73;56865.81;5041598;28;20033;-86
2023/07/17 00:38:15;;;;;;;11.40;5.00;;;16.10;99.90;;;-144.05;68.94;56880.69;5040654;28;20455;-87
2023/07/17 00:40:41;;;;;;;10.30;4.80;;;16.10;99.90;;;-144.05;69.29;56880.69;5042612;28;20049;-88
2023/07/17 00:43:12;;;;;;;8.95;3.80;;;16.00;99.90;;;-144.05;69.72;56872.19;5043719;28;20021;-86
2023/07/17 00:45:43;;;;;;;7.65;4.70;;;15.80;99.90;;;-144.05;69.84;56859.47;5058574;28;20052;-84
2023/07/17 00:48:10;;;;;;;7.38;4.65;;;15.80;99.90;;;-144.05;70.27;56859.47;5058503;28;20020;-86
2023/07/17 00:50:38;;;;;;;10.18;5.43;;;15.70;99.90;;;-144.05;71.12;56887.06;5056621;28;20047;-88
2023/07/17 00:53:08;;;;;;;11.98;4.78;;;15.70;99.90;;;-144.05;71.03;56891.31;5075851;28;20032;-87
2023/07/17 00:55:36;;;;;;;10.77;4.65;;;15.80;99.90;;;-144.05;70.78;56876.44;5055337;28;20021;-85
2023/07/17 00:58:03;;;;;;;9.68;5.07;;;15.80;99.90;;;-144.05;70.49;56859.47;5039833;28;20055;-86
2023/07/17 01:00:29;;;;;;;7.25;4.78;;;16.00;99.90;;;-144.05;70.07;56853.09;5053941;28;20036;-87
2023/07/17 01:02:58;;;;;;;9.38;4.55;;;16.00;99.90;;;-144.05;69.58;56857.34;5054760;28;20033;-87
2023/07/17 01:05:24;;;;;;;7.55;4.63;;;16.20;99.90;;;-144.05;69.10;56870.06;5049270;28;20092;-87
2023/07/17 01:07:50;;;;;;;6.82;4.28;;;16.30;99.90;;;-144.05;67.98;56865.81;5046799;28;20039;-87
2023/07/17 01:10:16;;;;;;;9.48;4.03;;;16.40;99.90;;;-144.05;66.86;56880.69;5050850;28;20084;-85
2023/07/17 01:12:41;;;;;;;7.80;4.35;;;16.60;99.90;;;-144.05;65.99;56865.81;5074641;28;20036;-82
2023/07/17 01:15:08;;;;;;;8.27;4.13;;;16.80;99.90;;;-144.05;64.45;56850.97;5065249;28;20033;-84
2023/07/17 01:17:34;;;;;;;8.13;3.75;;;17.00;99.90;;;-144.05;63.34;56855.22;5070241;28;20029;-86
2023/07/17 01:20:00;;;;;;;7.85;3.00;;;17.10;99.90;;;-144.05;62.93;56853.09;5053252;28;20024;-87
2023/07/17 01:22:37;;;;;;;8.32;3.83;;;17.20;99.90;;;-144.05;62.71;56891.31;5053868;28;20020;-86
2023/07/17 01:25:04;;;;;;;9.15;3.85;;;17.30;99.90;;;-144.05;62.99;56874.31;5045480;28;20128;-86
2023/07/17 01:27:30;;;;;;;11.35;3.55;;;17.30;99.90;;;-144.05;63.30;56867.94;5063125;28;20084;-87
2023/07/17 01:29:56;;;;;;;4.60;2.80;;;17.30;99.90;;;-144.05;63.77;56853.09;5060973;28;20056;-85
2023/07/17 01:32:22;;;;;;;7.32;3.60;;;17.30;99.90;;;-144.05;63.74;56887.06;5055739;28;20021;-85
2023/07/17 01:34:47;;;;;;;6.75;3.20;;;17.20;99.90;;;-144.05;64.34;56889.19;5055590;28;20020;-85
2023/07/17 01:37:13;;;;;;;7.55;3.28;;;17.10;99.90;;;-144.05;65.09;56878.56;5055476;28;20032;-86
2023/07/17 01:39:39;;;;;;;6.43;3.20;;;17.10;99.90;;;-144.05;66.87;56865.81;5055537;28;20129;-88
2023/07/17 01:42:05;;;;;;;7.85;3.38;;;17.00;99.90;;;-144.05;67.56;56876.44;5055988;28;20025;-89
2023/07/17 01:44:31;;;;;;;8.18;3.38;;;16.90;99.90;;;-144.05;67.73;56880.69;5056226;28;20082;-85
2023/07/17 01:46:59;;;;;;;9.50;2.90;;;16.80;99.90;;;-144.05;69.02;56880.69;5056009;28;20494;-87
2023/07/17 01:49:24;;;;;;;8.82;3.58;;;16.80;99.90;;;-144.05;69.23;56880.69;5056277;28;20024;-85
2023/07/17 01:51:50;;;;;;;5.38;2.65;;;16.70;99.90;;;-144.05;69.04;56859.47;5056952;28;20020;-87
2023/07/17 01:54:16;;;;;;;7.13;3.10;;;16.60;99.90;;;-144.05;69.48;56861.56;5055624;28;20021;-87
2023/07/17 01:56:42;;;;;;;6.60;3.30;;;16.60;99.90;;;-144.05;70.10;56867.94;5056196;28;20020;-86
2023/07/17 01:59:08;;;;;;;7.43;3.03;;;16.60;99.90;;;-144.05;70.29;56863.69;5055533;28;20452;-90
2023/07/17 02:01:34;;;;;;;6.15;3.15;;;16.60;99.90;;;-144.05;71.03;56863.69;5055857;28;20044;-91
2023/07/17 02:04:03;;;;;;;6.95;3.05;;;16.50;99.90;;;-144.05;70.47;56861.56;5055482;28;20039;-87
2023/07/17 02:06:29;;;;;;;5.63;3.63;;;16.50;99.90;;;-144.05;70.66;56876.44;5055570;28;20157;-86
2023/07/17 02:08:55;;;;;;;8.07;3.75;;;16.40;99.90;;;-144.05;71.21;56878.56;5055129;28;20480;-87
2023/07/17 02:11:26;;;;;;;4.97;3.47;;;16.40;99.90;;;-144.05;71.49;56872.19;5055365;28;20032;-89
2023/07/17 02:13:52;;;;;;;8.45;3.08;;;16.30;99.90;;;-144.05;72.12;56867.94;5055795;28;20035;-88
2023/07/17 02:16:18;;;;;;;6.43;3.83;;;16.30;99.90;;;-144.05;72.45;56876.44;5055438;28;20029;-88
2023/07/17 02:18:44;;;;;;;8.90;3.47;;;16.30;99.90;;;-144.05;72.61;56867.94;5054859;28;20101;-87
2023/07/17 02:21:10;;;;;;;9.05;3.55;;;16.30;99.90;;;-144.05;72.57;56859.47;5055158;28;20480;-87
2023/07/17 02:23:36;;;;;;;8.48;3.80;;;16.30;99.90;;;-144.05;72.91;56882.81;5055693;28;20033;-88
2023/07/17 02:26:03;;;;;;;7.95;3.50;;;16.30;99.90;;;-144.05;73.05;56878.56;5055626;28;20035;-88
2023/07/17 02:28:29;;;;;;;7.38;3.72;;;16.30;99.90;;;-144.05;72.74;56853.09;5054952;28;20028;-87
2023/07/17 02:30:55;;;;;;;7.05;3.35;;;16.30;99.90;;;-144.05;72.85;56878.56;5073509;28;20025;-87
2023/07/17 02:33:21;;;;;;;7.70;3.40;;;16.20;99.90;;;-144.05;73.10;56876.44;5055792;28;20040;-90
2023/07/17 02:35:46;;;;;;;7.45;3.70;;;16.20;99.90;;;-144.05;73.33;56853.09;5056537;28;20034;-88
2023/07/17 02:38:12;;;;;;;9.35;3.72;;;16.20;99.90;;;-144.05;73.36;56867.94;5056291;28;20586;-89
2023/07/17 02:40:38;;;;;;;11.00;4.18;;;16.20;99.90;;;-144.05;73.42;56874.31;5056838;28;20052;-87
2023/07/17 02:43:06;;;;;;;9.98;3.92;;;16.20;99.90;;;-144.05;73.05;56848.84;5056953;28;20048;-88
2023/07/17 02:45:32;;;;;;;10.45;3.83;;;16.20;99.90;;;-144.05;73.15;56859.47;5055122;28;20115;-88
2023/07/17 02:47:58;;;;;;;10.55;3.42;;;16.20;99.90;;;-144.05;73.76;56872.19;5054551;28;20574;-87
2023/07/17 02:50:23;;;;;;;7.25;3.15;;;16.20;99.90;;;-144.05;72.93;56867.94;5072147;28;20503;-86
2023/07/17 02:52:49;;;;;;;8.25;3.70;;;16.20;99.90;;;-144.05;72.70;56855.22;5055048;28;20094;-82
2023/07/17 02:55:15;;;;;;;8.43;4.03;;;16.20;99.90;;;-144.05;72.94;56876.44;5055253;28;20034;-86
2023/07/17 02:57:41;;;;;;;7.03;3.40;;;16.30;99.90;;;-144.05;73.40;56874.31;5054771;28;20067;-87
2023/07/17 03:00:10;;;;;;;7.78;3.92;;;16.10;99.90;;;-144.05;73.29;56872.19;5071885;28;20051;-85
2023/07/17 03:02:41;;;;;;;6.07;2.90;;;16.10;99.90;;;-144.05;73.04;56857.34;5072188;28;20028;-86
2023/07/17 03:05:09;;;;;;;5.47;2.92;;;16.10;99.90;;;-144.05;74.16;56838.22;5055325;28;20025;-88
2023/07/17 03:07:45;;;;;;;4.90;2.28;;;16.00;99.90;;;-144.05;74.75;56870.06;5072470;28;20068;-85
2023/07/17 03:10:12;;;;;;;4.65;2.60;;;16.00;99.90;;;-144.05;73.43;56865.81;5072560;28;20024;-85
2023/07/17 03:12:38;;;;;;;4.38;2.42;;;15.90;99.90;;;-144.05;72.84;56870.06;5055796;28;20468;-88
2023/07/17 03:15:07;;;;;;;4.05;2.42;;;15.80;99.90;;;-144.05;72.91;56874.31;5055559;28;20033;-90
2023/07/17 03:17:33;;;;;;;6.97;2.42;;;15.80;99.90;;;-144.05;73.24;56891.31;5054941;28;20029;-90
2023/07/17 03:20:00;;;;;;;4.78;2.95;;;15.80;99.90;;;-144.05;73.20;56865.81;5055957;28;20031;-88
2023/07/17 03:22:26;;;;;;;6.70;3.10;;;15.80;99.90;;;-144.05;73.46;56887.06;5072166;28;20484;-87
2023/07/17 03:24:54;;;;;;;6.53;2.70;;;15.80;99.90;;;-144.05;73.38;56876.44;5055484;28;20028;-87
2023/07/17 03:27:19;;;;;;;4.07;2.30;;;15.70;99.90;;;-144.05;73.12;56882.81;5072047;28;20483;-87
2023/07/17 03:29:49;;;;;;;3.75;2.28;;;15.70;99.90;;;-144.05;72.84;56884.94;5055656;28;20117;-86
2023/07/17 03:32:14;;;;;;;5.47;2.05;;;15.80;99.90;;;-144.05;72.40;56891.31;5057646;28;20140;-87
2023/07/17 03:34:41;;;;;;;4.68;2.63;;;15.80;99.90;;;-144.05;71.97;56865.81;5057999;28;20028;-88
2023/07/17 03:37:07;;;;;;;7.97;2.83;;;15.80;99.90;;;-144.05;72.14;56884.94;5058237;28;20040;-88
2023/07/17 03:39:33;;;;;;;5.82;2.50;;;15.70;99.90;;;-144.05;71.58;56870.06;5058000;28;20028;-86
2023/07/17 03:41:58;;;;;;;5.75;2.25;;;15.80;99.90;;;-144.05;71.57;56884.94;5057759;28;20029;-89
2023/07/17 03:44:25;;;;;;;3.90;2.35;;;15.80;99.90;;;-144.05;71.95;56865.81;5056964;28;20036;-88
2023/07/17 03:46:50;;;;;;;5.38;2.72;;;15.80;99.90;;;-144.05;72.06;56878.56;5057526;28;20078;-88
2023/07/17 03:49:16;;;;;;;5.68;2.53;;;15.70;99.90;;;-144.05;71.92;56867.94;5058247;28;20020;-89
2023/07/17 03:51:42;;;;;;;5.45;2.50;;;15.80;99.90;;;-144.05;71.88;56870.06;5057646;28;20549;-89
2023/07/17 03:54:08;;;;;;;3.45;2.00;;;15.80;99.90;;;-144.05;71.69;56887.06;5058026;28;20024;-88
2023/07/17 03:56:36;;;;;;;4.55;2.33;;;15.80;99.90;;;-144.05;71.40;56855.22;5075258;28;20029;-88
2023/07/17 03:59:01;;;;;;;4.10;1.95;;;15.80;99.90;;;-144.05;71.75;56861.56;5059286;28;20036;-87
2023/07/17 04:01:27;;;;;;;4.40;2.38;;;15.80;99.90;;;-144.05;71.15;56893.44;5059895;28;20032;-89
2023/07/17 04:03:53;;;;;;;6.30;2.45;;;15.80;99.90;;;-144.05;71.03;56870.06;5059418;28;20480;-86
2023/07/17 04:06:19;;;;;;;5.97;2.45;;;15.80;99.90;;;-144.05;71.35;56861.56;5059334;28;20066;-87
2023/07/17 04:08:45;;;;;;;6.07;2.70;;;15.70;99.90;;;-144.05;71.43;56859.47;5058364;28;20032;-87
2023/07/17 04:11:10;;;;;;;4.55;2.38;;;15.70;99.90;;;-144.05;71.59;56865.81;5059074;28;20028;-88
2023/07/17 04:13:36;;;;;;;8.50;2.67;;;15.70;99.90;;;-144.05;71.63;56895.56;5059535;28;20059;-85
2023/07/17 04:16:03;;;;;;;5.57;2.45;;;15.70;99.90;;;-144.05;71.24;56870.06;5058402;28;20032;-87
2023/07/17 04:18:29;;;;;;;4.90;2.10;;;15.70;99.90;;;-144.05;71.27;56850.97;5098276;28;20124;-85
2023/07/17 04:20:54;;;;;;;4.07;2.10;;;15.60;99.90;;;-144.05;71.51;56870.06;5081946;28;20091;-88
2023/07/17 04:23:20;;;;;;;5.40;2.65;;;15.60;99.90;;;-144.05;72.03;56857.34;5081779;28;20055;-89
2023/07/17 04:25:46;;;;;;;7.22;2.65;;;15.60;99.90;;;-144.05;72.24;56884.94;5080730;28;20036;-88
2023/07/17 04:28:12;;;;;;;8.63;2.05;;;15.60;99.90;;;-144.05;72.64;56870.06;5061852;28;20032;-88
2023/07/17 04:30:38;;;;;;;4.53;2.60;;;15.50;99.90;;;-144.05;72.34;56874.31;5061962;28;20041;-86
2023/07/17 04:33:05;;;;;;;4.57;2.33;;;15.50;99.90;;;-144.05;72.71;56874.31;5045361;28;20048;-87
2023/07/17 04:35:39;;;;;;;4.07;2.10;;;15.50;99.90;;;-144.05;72.41;56870.06;5040074;28;20025;-87
2023/07/17 04:38:05;;;;;;;4.57;2.58;;;15.50;99.90;;;-144.05;72.49;56865.81;5038399;28;20029;-88
2023/07/17 04:40:32;;;;;;;10.15;2.30;;;15.50;99.90;;;-144.05;72.56;56882.81;5037940;28;20385;-86
2023/07/17 04:43:01;;;;;;;5.55;2.65;;;15.60;99.90;;;-144.05;72.04;56857.34;5037723;28;20035;-87
2023/07/17 04:45:27;;;;;;;6.32;2.13;;;15.70;99.90;;;-144.05;71.80;56870.06;5037420;28;20261;-86
2023/07/17 04:47:54;;;;;;;3.60;1.80;;;15.70;99.90;;;-144.05;71.45;56867.94;5037765;28;20032;-88
2023/07/17 04:50:26;;;;;;;5.53;2.13;;;15.80;99.90;;;-144.05;71.40;56857.34;5037425;28;20025;-86
2023/07/17 04:52:53;;;;;;;6.70;2.30;;;15.90;99.90;;;-144.05;71.05;56850.97;5038296;28;20035;-87
2023/07/17 04:55:21;;;;;;;3.05;1.90;;;15.90;99.90;;;-144.05;70.64;56865.81;5053940;28;20029;-87
2023/07/17 04:57:47;;;;;;;5.65;2.38;;;16.00;99.90;;;-144.05;69.85;56899.81;5037762;28;20040;-86
2023/07/17 05:00:14;;;;;;;8.35;2.67;;;16.00;99.90;;;-144.05;69.75;56887.06;5036825;28;20029;-88
2023/07/17 05:02:40;;;;;;;4.82;1.90;;;16.20;99.90;;;-144.05;68.82;56850.97;5036831;28;20025;-88
2023/07/17 05:05:07;;;;;;;4.50;2.15;;;16.30;99.90;;;-144.05;68.38;56861.56;5036940;28;20116;-88
2023/07/17 05:07:33;;;;;;;5.43;2.13;;;16.40;99.90;;;-144.05;67.76;56895.56;5053623;28;20565;-87
2023/07/17 05:09:59;;;;;;;6.63;2.30;;;16.50;99.90;;;-144.05;67.28;56865.81;5036993;28;20037;-89
2023/07/17 05:12:24;;;;;;;6.70;2.35;;;16.60;99.90;;;-144.05;66.89;56857.34;5038199;28;20491;-89
2023/07/17 05:14:50;;;;;;;5.18;2.40;;;16.70;99.90;;;-144.05;66.72;56882.81;5054072;28;20483;-89
2023/07/17 05:17:16;;;;;;;3.83;2.10;;;16.70;99.90;;;-144.05;66.31;56857.34;5037766;28;20510;-86
2023/07/17 05:19:42;;;;;;;8.57;2.22;;;16.70;99.90;;;-144.05;65.63;56861.56;5054269;28;20059;-89
2023/07/17 05:22:08;;;;;;;4.05;1.77;;;16.80;99.90;;;-144.05;65.80;56848.84;5037730;28;20496;-87
2023/07/17 05:24:34;;;;;;;7.53;2.17;;;16.90;99.90;;;-144.05;64.63;56861.56;5055725;28;20029;-88
2023/07/17 05:27:00;;;;;;;7.13;2.47;;;17.00;99.90;;;-144.05;64.36;56889.19;5065713;28;20165;-86
2023/07/17 05:29:25;;;;;;;5.60;2.25;;;17.10;99.90;;;-144.05;64.45;56863.69;5057756;28;20027;-88
2023/07/17 05:31:51;;;;;;;6.05;2.25;;;17.10;99.90;;;-144.05;63.98;56887.06;5057741;28;20111;-88
2023/07/17 05:34:17;;;;;;;4.68;1.75;;;17.20;99.90;;;-144.05;62.97;56857.34;5057752;28;20025;-86
2023/07/17 05:36:43;;;;;;;7.35;2.13;;;17.40;99.90;;;-144.05;63.57;56870.06;5075632;28;20364;-87
2023/07/17 05:39:09;;;;;;;8.77;2.45;;;17.30;99.90;;;-144.05;62.98;56861.56;5074438;28;20387;-87
2023/07/17 05:41:35;;;;;;;6.78;2.90;;;17.40;99.90;;;-144.05;61.96;56878.56;5074371;28;20028;-89
2023/07/17 05:44:01;;;;;;;4.80;1.90;;;17.60;99.90;;;-144.05;61.22;56880.69;5057135;28;20025;-87
2023/07/17 05:46:27;;;;;;;6.40;2.47;;;17.70;99.90;;;-144.05;60.68;56880.69;5075071;28;20031;-89
2023/07/17 05:48:53;;;;;;;5.80;2.45;;;17.70;99.90;;;-144.05;59.49;56861.56;5057439;28;20119;-84
2023/07/17 05:51:19;;;;;;;5.45;2.08;;;17.90;99.90;;;-144.05;59.48;56865.81;5073818;28;20067;-86
2023/07/17 05:53:45;;;;;;;6.35;2.78;;;17.90;99.90;;;-144.05;59.63;56882.81;5073620;28;20047;-89
2023/07/17 05:56:14;;;;;;;6.45;2.45;;;18.00;99.90;;;-144.05;58.06;56882.81;5057311;28;20024;-88
2023/07/17 05:58:41;;;;;;;9.63;3.13;;;18.20;99.90;;;-144.05;57.74;56878.56;5058067;28;20166;-89
2023/07/17 06:01:06;;;;;;;5.88;2.13;;;18.10;99.90;;;-144.05;57.25;56880.69;5057852;28;20086;-87
2023/07/17 06:03:32;;;;;;;4.68;2.30;;;18.30;99.90;;;-144.05;57.51;56870.06;5058120;28;20025;-86
2023/07/17 06:05:58;;;;;;;6.32;2.20;;;18.50;99.90;;;-144.05;56.45;56887.06;5075832;28;20032;-89
2023/07/17 06:08:24;;;;;;;8.48;2.63;;;18.60;99.90;;;-144.05;55.26;56908.31;5096090;22;20044;-79
2023/07/17 06:10:50;;;;;;;5.82;2.70;;;18.90;99.90;;;-144.05;54.10;56908.31;5054863;28;20032;-84
2023/07/17 06:13:19;;;;;;;7.78;3.05;;;19.10;99.90;;;-144.05;53.21;56906.19;5073295;28;20452;-84
2023/07/17 06:15:45;;;;;;;4.97;2.53;;;19.40;99.90;;;-144.05;53.61;56906.19;5073303;28;20395;-82
2023/07/17 06:18:10;;;;;;;15.05;3.10;;;19.40;99.90;;;-144.05;52.95;56901.94;5073042;28;20038;-81
2023/07/17 06:20:36;;;;;;;4.30;2.70;;;19.30;99.90;;;-144.05;51.88;56891.31;5072949;28;20115;-81
2023/07/17 06:23:02;;;;;;;8.15;2.70;;;19.30;99.90;;;-144.05;52.38;56891.31;5072003;28;20036;-80
2023/07/17 06:25:28;;;;;;;7.80;3.20;;;19.40;99.90;;;-144.05;51.49;56897.69;5073186;28;20028;-79
2023/07/17 06:27:54;;;;;;;5.75;2.70;;;19.40;99.90;;;-144.05;51.03;56895.56;5071467;28;20032;-81
2023/07/17 06:30:21;;;;;;;6.40;3.05;;;19.50;99.90;;;-144.05;50.92;56914.69;5059044;28;20032;-82
2023/07/17 06:32:47;;;;;;;5.72;3.17;;;19.70;99.90;;;-144.05;50.79;56887.06;5076836;28;20092;-81
2023/07/17 06:35:13;;;;;;;5.93;3.20;;;19.60;99.90;;;-144.05;50.55;56882.81;5076566;28;20121;-80
2023/07/17 06:37:39;;;;;;;7.13;3.83;;;19.70;99.90;;;-144.05;50.09;56891.31;5077077;28;20396;-80
2023/07/17 06:40:06;;;;;;;9.48;3.25;;;19.50;99.90;;;-144.05;50.76;56874.31;5057593;28;20063;-81
2023/07/17 06:42:33;;;;;;;10.93;3.92;;;19.70;99.90;;;-144.05;50.31;56893.44;5074547;28;20028;-80
2023/07/17 06:44:59;;;;;;;8.77;3.40;;;19.60;99.90;;;-144.05;49.79;56893.44;5057418;28;20021;-81
2023/07/17 06:47:25;;;;;;;7.97;3.85;;;19.70;99.90;;;-144.05;49.23;56882.81;5057357;28;20031;-83
2023/07/17 06:49:51;;;;;;;6.75;3.58;;;19.70;99.90;;;-144.05;50.02;56891.31;5074293;28;20024;-82
2023/07/17 06:52:17;;;;;;;8.30;4.35;;;19.80;99.90;;;-144.05;48.75;56904.06;5074345;28;20032;-80
2023/07/17 06:54:43;;;;;;;11.80;4.30;;;20.10;99.90;;;-144.05;47.89;56916.81;5075363;28;20090;-83
2023/07/17 06:57:09;;;;;;;6.93;3.53;;;20.20;99.90;;;-144.05;47.45;56910.44;5057045;28;20539;-81
2023/07/17 06:59:35;;;;;;;6.35;3.70;;;20.20;99.90;;;-144.05;48.78;56880.69;5074096;28;20394;-81
2023/07/17 07:02:01;;;;;;;9.75;4.50;;;20.10;99.90;;;-144.05;48.15;56901.94;5056541;28;20028;-85
2023/07/17 07:04:26;;;;;;;10.65;4.55;;;20.40;99.90;;;-144.05;47.39;56893.44;5056819;28;20087;-82
2023/07/17 07:06:53;;;;;;;6.78;3.92;;;20.60;99.90;;;-144.05;45.37;56899.81;5056591;28;20028;-84
2023/07/17 07:09:18;;;;;;;9.32;4.50;;;20.70;99.90;;;-144.05;46.46;56901.94;5075279;28;20031;-84
2023/07/17 07:11:44;;;;;;;8.43;4.07;;;20.90;99.90;;;-144.05;46.70;56889.19;5074859;28;20048;-80
2023/07/17 07:14:10;;;;;;;9.43;4.45;;;20.60;99.90;;;-144.05;46.04;56914.69;5074746;28;20036;-83
2023/07/17 07:16:36;;;;;;;8.68;4.85;;;20.60;99.90;;;-144.05;46.59;56891.31;5056786;28;20029;-81
2023/07/17 07:19:02;;;;;;;9.48;4.22;;;20.30;99.90;;;-144.05;46.53;56901.94;5057417;28;20025;-85
2023/07/17 07:21:28;;;;;;;9.02;4.18;;;20.30;99.90;;;-144.05;45.15;56908.31;5061752;28;20039;-81
2023/07/17 07:23:54;;;;;;;8.95;4.95;;;20.50;99.90;;;-144.05;44.82;56895.56;5075853;28;20372;-84
2023/07/17 07:26:20;;;;;;;10.18;4.53;;;20.80;99.90;;;-144.05;45.04;56904.06;5051048;28;20028;-81
2023/07/17 07:28:46;;;;;;;8.18;5.10;;;20.90;99.90;;;-144.05;44.46;56891.31;5053884;28;20048;-82
2023/07/17 07:31:11;;;;;;;10.65;4.38;;;21.10;99.90;;;-144.05;43.92;56929.53;5053381;28;20102;-85
2023/07/17 07:33:38;;;;;;;8.88;4.72;;;21.40;99.90;;;-144.05;44.05;56912.56;5066568;28;20160;-84
2023/07/17 07:36:04;;;;;;;10.18;4.38;;;21.60;99.90;;;-144.05;41.94;56912.56;5050105;28;20029;-82
2023/07/17 07:38:30;;;;;;;9.05;4.97;;;21.60;99.90;;;-144.05;41.96;56935.91;5066468;28;20060;-82
2023/07/17 07:40:55;;;;;;;8.60;5.00;;;21.70;99.90;;;-144.05;41.26;56929.53;5071904;28;20032;-79
2023/07/17 07:43:21;;;;;;;10.30;4.90;;;21.60;99.90;;;-144.05;42.18;56927.41;5071368;28;20029;-83
2023/07/17 07:45:53;;;;;;;10.07;4.90;;;21.70;99.90;;;-144.05;41.89;56912.56;5050405;28;20048;-84
2023/07/17 07:48:19;;;;;;;8.43;4.88;;;21.70;99.90;;;-144.05;41.43;56948.66;5058389;28;20400;-84
2023/07/17 07:50:46;;;;;;;7.82;5.18;;;22.10;99.90;;;-144.05;39.53;56944.41;5056280;28;20452;-85
2023/07/17 07:53:12;;;;;;;10.48;5.60;;;22.10;99.90;;;-144.05;39.75;56957.16;5058956;28;20032;-88
2023/07/17 07:55:38;;;;;;;11.63;5.22;;;21.60;99.90;;;-144.05;40.51;56929.53;5059307;28;20047;-85
2023/07/17 07:58:04;;;;;;;10.98;5.43;;;21.30;99.90;;;-144.05;40.41;56895.56;5039218;28;20432;-84
2023/07/17 08:00:30;;;;;;;11.77;5.03;;;21.40;99.90;;;-144.05;40.44;56938.03;5040332;28;20036;-85
2023/07/17 08:02:56;;;;;;;9.15;5.63;;;21.60;99.90;;;-144.05;39.20;56929.53;5040461;28;20060;-83
2023/07/17 08:05:22;;;;;;;9.88;4.65;;;21.90;99.90;;;-144.05;39.27;56957.16;5040224;28;20021;-85
2023/07/17 08:07:48;;;;;;;12.63;5.78;;;22.20;99.90;;;-144.05;38.40;56963.53;5039567;28;20488;-83
2023/07/17 08:10:14;;;;;;;8.82;5.25;;;22.40;99.90;;;-144.05;37.83;56948.66;5056129;28;20052;-83
2023/07/17 08:12:40;;;;;;;11.70;5.32;;;22.60;99.90;;;-144.05;37.80;56961.41;5055065;28;20025;-82
2023/07/17 08:15:07;;;;;;;9.48;4.80;;;22.60;99.90;;;-144.05;38.44;56927.41;5039094;28;20120;-84
2023/07/17 08:17:34;;;;;;;10.50;5.05;;;22.40;99.90;;;-144.05;38.49;56950.78;5057331;28;20128;-80
2023/07/17 08:20:00;;;;;;;11.10;4.85;;;22.30;99.90;;;-144.05;38.37;56938.03;5057955;28;20061;-82
2023/07/17 08:22:26;;;;;;;12.52;5.38;;;22.40;99.90;;;-144.05;39.71;56974.16;5058274;28;20031;-82
2023/07/17 08:24:52;;;;;;;8.98;4.88;;;22.40;99.90;;;-144.05;38.53;56946.53;5056743;28;20033;-79
2023/07/17 08:27:18;;;;;;;7.53;4.80;;;22.80;99.90;;;-144.05;38.74;56942.28;5052560;28;20052;-81
2023/07/17 08:29:44;;;;;;;11.00;4.93;;;22.40;99.90;;;-144.05;39.27;56929.53;5059675;28;20024;-84
2023/07/17 08:32:13;;;;;;;9.05;5.05;;;22.70;99.90;;;-144.05;37.63;56976.28;5059601;28;20029;-80
2023/07/17 08:34:38;;;;;;;10.95;5.05;;;22.90;99.90;;;-144.05;39.38;56974.16;5059609;28;20020;-81
2023/07/17 08:37:05;;;;;;;8.55;4.65;;;22.50;99.90;;;-144.05;39.87;56948.66;5077412;28;20161;-82
2023/07/17 08:39:31;;;;;;;8.68;4.65;;;22.20;99.90;;;-144.05;39.26;56963.53;5059080;28;20107;-82
2023/07/17 08:41:56;;;;;;;6.55;4.07;;;22.20;99.90;;;-144.05;40.58;56950.78;5061977;28;20545;-81
2023/07/17 08:44:24;;;;;;;6.82;4.07;;;22.10;99.90;;;-144.05;39.98;56912.56;5079125;28;20029;-81
2023/07/17 08:46:52;;;;;;;6.55;3.40;;;21.70;99.90;;;-144.05;40.71;56942.28;5089167;28;20084;-80
2023/07/17 08:49:20;;;;;;;7.05;3.65;;;21.70;99.90;;;-144.05;41.08;56927.41;5064217;28;20495;-80
2023/07/17 08:51:52;;;;;;;8.75;4.05;;;21.30;99.90;;;-144.05;42.56;56927.41;5077225;28;20052;-81
2023/07/17 08:54:18;;;;;;;7.13;3.72;;;21.10;99.90;;;-144.05;42.00;56940.16;5078278;28;20060;-82
2023/07/17 08:56:46;;;;;;;11.82;4.13;;;21.60;99.90;;;-144.05;41.05;56948.66;5061034;28;20031;-81
2023/07/17 08:59:13;;;;;;;7.00;3.58;;;22.00;99.90;;;-144.05;40.77;56940.16;5079586;28;20037;-81
2023/07/17 09:01:40;;;;;;;9.80;3.97;;;21.70;99.90;;;-144.05;42.46;56938.03;5078827;28;20028;-83
2023/07/17 09:04:09;;;;;;;6.72;3.55;;;21.30;99.90;;;-144.05;41.62;56944.41;5078491;28;20142;-83
2023/07/17 09:06:34;;;;;;;9.60;3.95;;;21.70;99.90;;;-144.05;41.08;56944.41;5077771;28;20054;-82
2023/07/17 09:09:01;;;;;;;7.80;3.47;;;21.60;99.90;;;-144.05;41.65;56948.66;5078166;28;20029;-83
2023/07/17 09:11:27;;;;;;;10.35;4.03;;;21.70;99.90;;;-144.05;41.27;56927.41;5077718;28;20044;-81
2023/07/17 09:13:52;;;;;;;7.70;3.47;;;21.90;99.90;;;-144.05;40.65;56927.41;5078111;28;20036;-85
2023/07/17 09:16:24;;;;;;;9.85;3.88;;;21.60;99.90;;;-144.05;41.29;56940.16;5060001;28;20531;-83
2023/07/17 09:18:53;;;;;;;8.73;4.22;;;21.40;99.90;;;-144.05;41.72;56944.41;5077962;28;20033;-79
2023/07/17 09:21:26;;;;;;;6.97;3.90;;;21.40;99.90;;;-144.05;41.83;56927.41;5076831;28;20052;-81
2023/07/17 09:23:57;;;;;;;6.38;3.38;;;21.00;99.90;;;-144.05;42.75;56935.91;5060142;28;20036;-81
2023/07/17 09:26:27;;;;;;;9.60;3.67;;;20.80;99.90;;;-144.05;42.60;56942.28;5069925;28;20021;-81
2023/07/17 09:28:58;;;;;;;9.40;4.03;;;20.90;99.90;;;-144.05;42.01;56935.91;5058107;28;20032;-82
2023/07/17 09:31:31;;;;;;;10.32;3.90;;;21.20;99.90;;;-144.05;41.46;56935.91;5039754;28;20157;-80
2023/07/17 09:34:12;;;;;;;5.72;3.22;;;21.20;99.90;;;-144.05;41.81;56929.53;5040854;28;20340;-79
2023/07/17 09:36:38;;;;;;;7.63;3.65;;;21.10;99.90;;;-144.05;41.82;56963.53;5058325;28;20047;-79
2023/07/17 09:39:05;;;;;;;9.07;3.47;;;21.10;99.90;;;-144.05;40.88;56921.06;5039889;28;20025;-82
2023/07/17 09:41:31;;;;;;;6.38;3.42;;;21.30;99.90;;;-144.05;41.33;56929.53;5057738;28;20103;-79
2023/07/17 09:44:08;;;;;;;7.40;3.92;;;21.30;99.90;;;-144.05;40.49;56929.53;5037877;28;20119;-82
2023/07/17 09:46:39;;;;;;;7.38;3.65;;;21.30;99.90;;;-144.05;40.19;56935.91;5053256;28;20029;-81
2023/07/17 09:49:07;;;;;;;6.35;3.47;;;21.40;99.90;;;-144.05;40.48;56927.41;5052905;28;20052;-82
2023/07/17 09:51:33;;;;;;;9.45;3.38;;;22.20;99.90;;;-144.05;39.72;56942.28;5051458;28;20067;-80
2023/07/17 09:53:59;;;;;;;8.27;3.40;;;23.00;99.90;;;-144.05;37.46;56989.00;5053555;28;20058;-80
2023/07/17 09:56:31;;;;;;;6.13;3.65;;;23.50;99.90;;;-144.05;37.86;56967.78;5052698;28;20033;-81
2023/07/17 09:59:19;;;;;;;6.10;3.70;;;23.30;99.90;;;-144.05;38.55;56929.53;5052667;28;20071;-80
2023/07/17 10:01:49;;;;;;;6.82;3.30;;;22.30;99.90;;;-144.05;39.45;56952.91;5052886;28;20399;-80
2023/07/17 10:04:40;;;;;;;9.18;3.67;;;22.00;99.90;;;-144.05;39.37;56938.03;5053155;28;20036;-82